Purdy Station, New York
Current Conditions -  °F | °C
As of 8:53 AM on Saturday 22 Nov 2014 (Local Time) from KDXR Reporting Station
Clear Clear  
Wind Chill: 19°   Ceiling: Unl
Heat Index: 28°   Visibility: 10mi
Dew Point: 12°   Wind: 10mph
Humidity: 51%   Direction: 250°WSW
Pressure: 30.44"   Gusts: NA
Location:  41.3178°N, 73.6377°W
Report Text: KDXR 221353Z 25009KT 10SM CLR M02/M11 A3044 RMK AO2 SLP313 T10221111
Loading
Personal Weather Stations






























Interactive Weather Map New forecast layout! Learn more

10-Day Weather Forecast

Advertisements
Track Severe Weather on mobile